sensor_id;sensor_type;location;lat;lon;timestamp;pressure;altitude;pressure_sealevel;temperature;humidity
34124;BME280;13153;52.316;21.166;2023-12-29T00:02:23;100038.38;;;10.42;56.34
34124;BME280;13153;52.316;21.166;2023-12-29T00:04:49;100043.00;;;10.52;56.00
34124;BME280;13153;52.316;21.166;2023-12-29T00:07:15;100045.69;;;10.55;56.03
34124;BME280;13153;52.316;21.166;2023-12-29T00:09:41;100046.50;;;10.53;55.97
34124;BME280;13153;52.316;21.166;2023-12-29T00:12:08;100038.81;;;10.62;56.09
34124;BME280;13153;52.316;21.166;2023-12-29T00:14:39;100042.06;;;10.50;56.14
34124;BME280;13153;52.316;21.166;2023-12-29T00:17:04;100032.56;;;10.57;56.19
34124;BME280;13153;52.316;21.166;2023-12-29T00:19:30;100035.09;;;10.52;56.20
34124;BME280;13153;52.316;21.166;2023-12-29T00:21:56;100039.47;;;10.52;56.13
34124;BME280;13153;52.316;21.166;2023-12-29T00:24:22;100030.66;;;10.50;56.19
34124;BME280;13153;52.316;21.166;2023-12-29T00:26:48;100028.25;;;10.61;56.03
34124;BME280;13153;52.316;21.166;2023-12-29T00:29:17;100031.53;;;10.50;56.21
34124;BME280;13153;52.316;21.166;2023-12-29T00:31:43;100029.78;;;10.49;56.22
34124;BME280;13153;52.316;21.166;2023-12-29T00:34:08;100029.84;;;10.52;56.39
34124;BME280;13153;52.316;21.166;2023-12-29T00:36:34;100023.75;;;10.55;55.85
34124;BME280;13153;52.316;21.166;2023-12-29T00:39:00;100029.09;;;10.58;56.18
34124;BME280;13153;52.316;21.166;2023-12-29T00:41:26;100021.16;;;10.56;56.00
34124;BME280;13153;52.316;21.166;2023-12-29T00:43:51;100022.59;;;10.42;56.68
34124;BME280;13153;52.316;21.166;2023-12-29T00:46:17;100024.59;;;10.54;56.34
34124;BME280;13153;52.316;21.166;2023-12-29T00:48:43;100022.66;;;10.45;56.26
34124;BME280;13153;52.316;21.166;2023-12-29T00:51:08;100024.56;;;10.52;56.37
34124;BME280;13153;52.316;21.166;2023-12-29T00:53:37;100027.38;;;10.60;56.20
34124;BME280;13153;52.316;21.166;2023-12-29T00:56:09;100024.84;;;10.65;56.10
34124;BME280;13153;52.316;21.166;2023-12-29T00:58:36;100021.81;;;10.46;56.21
34124;BME280;13153;52.316;21.166;2023-12-29T01:01:01;100025.50;;;10.54;56.05
34124;BME280;13153;52.316;21.166;2023-12-29T01:03:27;100025.38;;;10.48;55.93
34124;BME280;13153;52.316;21.166;2023-12-29T01:05:53;100022.88;;;10.54;55.82
34124;BME280;13153;52.316;21.166;2023-12-29T01:08:18;100028.00;;;10.48;55.82
34124;BME280;13153;52.316;21.166;2023-12-29T01:10:44;100019.13;;;10.43;56.10
34124;BME280;13153;52.316;21.166;2023-12-29T01:13:10;100018.19;;;10.40;55.92
34124;BME280;13153;52.316;21.166;2023-12-29T01:15:36;100018.41;;;10.50;55.50
34124;BME280;13153;52.316;21.166;2023-12-29T01:18:02;100012.34;;;10.54;55.20
34124;BME280;13153;52.316;21.166;2023-12-29T01:20:28;100007.97;;;10.55;55.37
34124;BME280;13153;52.316;21.166;2023-12-29T01:22:54;100017.53;;;10.51;55.26
34124;BME280;13153;52.316;21.166;2023-12-29T01:25:19;100003.84;;;10.68;54.97
34124;BME280;13153;52.316;21.166;2023-12-29T01:27:45;99997.50;;;10.58;54.61
34124;BME280;13153;52.316;21.166;2023-12-29T01:30:11;100004.28;;;10.47;54.70
34124;BME280;13153;52.316;21.166;2023-12-29T01:32:37;99996.75;;;10.64;54.42
34124;BME280;13153;52.316;21.166;2023-12-29T01:35:03;99999.56;;;10.73;53.88
34124;BME280;13153;52.316;21.166;2023-12-29T01:37:29;100003.09;;;10.73;54.14
34124;BME280;13153;52.316;21.166;2023-12-29T01:39:55;99990.94;;;10.80;54.02
34124;BME280;13153;52.316;21.166;2023-12-29T01:42:20;99988.97;;;10.70;54.32
34124;BME280;13153;52.316;21.166;2023-12-29T01:44:47;99981.81;;;10.63;54.41
34124;BME280;13153;52.316;21.166;2023-12-29T01:47:17;99988.31;;;10.80;53.89
34124;BME280;13153;52.316;21.166;2023-12-29T01:49:45;99978.47;;;10.71;54.07
34124;BME280;13153;52.316;21.166;2023-12-29T01:52:12;99973.41;;;10.80;54.02
34124;BME280;13153;52.316;21.166;2023-12-29T01:54:39;99965.34;;;10.73;53.95
34124;BME280;13153;52.316;21.166;2023-12-29T01:57:08;99962.78;;;10.76;54.09
34124;BME280;13153;52.316;21.166;2023-12-29T01:59:35;99964.56;;;10.77;53.84
34124;BME280;13153;52.316;21.166;2023-12-29T02:02:01;99961.94;;;10.77;54.17
34124;BME280;13153;52.316;21.166;2023-12-29T02:04:28;99957.19;;;10.59;54.27
34124;BME280;13153;52.316;21.166;2023-12-29T02:06:55;99940.56;;;10.60;54.62
34124;BME280;13153;52.316;21.166;2023-12-29T02:09:21;99943.22;;;10.62;54.21
34124;BME280;13153;52.316;21.166;2023-12-29T02:11:48;99930.00;;;10.58;54.41
34124;BME280;13153;52.316;21.166;2023-12-29T02:14:18;99934.16;;;10.47;54.42
34124;BME280;13153;52.316;21.166;2023-12-29T02:17:22;99931.59;;;10.50;54.59
34124;BME280;13153;52.316;21.166;2023-12-29T02:19:49;99928.91;;;10.47;54.58
34124;BME280;13153;52.316;21.166;2023-12-29T02:22:15;99920.94;;;10.44;54.71
34124;BME280;13153;52.316;21.166;2023-12-29T02:24:51;99920.81;;;10.35;54.90
34124;BME280;13153;52.316;21.166;2023-12-29T02:27:50;99926.94;;;10.36;54.91
34124;BME280;13153;52.316;21.166;2023-12-29T02:33:14;99920.88;;;10.41;54.54
34124;BME280;13153;52.316;21.166;2023-12-29T02:35:44;99923.50;;;10.38;54.62
34124;BME280;13153;52.316;21.166;2023-12-29T02:38:12;99921.72;;;10.37;54.45
34124;BME280;13153;52.316;21.166;2023-12-29T02:40:38;99912.91;;;10.35;54.71
34124;BME280;13153;52.316;21.166;2023-12-29T02:43:04;99911.00;;;10.27;54.64
34124;BME280;13153;52.316;21.166;2023-12-29T02:45:30;99908.28;;;10.23;54.64
34124;BME280;13153;52.316;21.166;2023-12-29T02:47:56;99902.16;;;10.23;55.10
34124;BME280;13153;52.316;21.166;2023-12-29T02:50:22;99902.09;;;10.20;54.80
34124;BME280;13153;52.316;21.166;2023-12-29T02:52:47;99906.38;;;10.16;55.16
34124;BME280;13153;52.316;21.166;2023-12-29T02:55:13;99903.69;;;10.15;54.89
34124;BME280;13153;52.316;21.166;2023-12-29T02:57:39;99898.28;;;10.07;55.32
34124;BME280;13153;52.316;21.166;2023-12-29T03:00:06;99897.31;;;10.02;55.01
34124;BME280;13153;52.316;21.166;2023-12-29T03:02:32;99904.28;;;10.00;55.37
34124;BME280;13153;52.316;21.166;2023-12-29T03:04:59;99907.72;;;9.98;55.42
34124;BME280;13153;52.316;21.166;2023-12-29T03:07:24;99911.16;;;9.95;55.67
34124;BME280;13153;52.316;21.166;2023-12-29T03:09:50;99911.00;;;9.87;55.54
34124;BME280;13153;52.316;21.166;2023-12-29T03:12:16;99910.13;;;9.87;55.60
34124;BME280;13153;52.316;21.166;2023-12-29T03:14:42;99910.13;;;9.87;56.14
34124;BME280;13153;52.316;21.166;2023-12-29T03:17:07;99910.25;;;9.93;55.34
34124;BME280;13153;52.316;21.166;2023-12-29T03:19:33;99905.88;;;9.93;55.23
34124;BME280;13153;52.316;21.166;2023-12-29T03:21:59;99896.19;;;9.91;55.65
34124;BME280;13153;52.316;21.166;2023-12-29T03:24:25;99892.44;;;9.78;56.06
34124;BME280;13153;52.316;21.166;2023-12-29T03:26:50;99892.34;;;9.74;56.07
34124;BME280;13153;52.316;21.166;2023-12-29T03:29:16;99895.88;;;9.76;56.12
34124;BME280;13153;52.316;21.166;2023-12-29T03:31:42;99903.84;;;9.79;56.12
34124;BME280;13153;52.316;21.166;2023-12-29T03:34:07;99900.38;;;9.81;56.13
34124;BME280;13153;52.316;21.166;2023-12-29T03:36:33;99900.38;;;9.81;55.68
34124;BME280;13153;52.316;21.166;2023-12-29T03:38:59;99902.09;;;9.79;56.11
34124;BME280;13153;52.316;21.166;2023-12-29T03:41:25;99898.44;;;9.73;55.85
34124;BME280;13153;52.316;21.166;2023-12-29T03:43:51;99901.97;;;9.73;56.30
34124;BME280;13153;52.316;21.166;2023-12-29T03:46:18;99899.22;;;9.69;55.82
34124;BME280;13153;52.316;21.166;2023-12-29T03:48:44;99901.81;;;9.67;56.35
34124;BME280;13153;52.316;21.166;2023-12-29T03:51:10;99891.25;;;9.64;56.53
34124;BME280;13153;52.316;21.166;2023-12-29T03:53:36;99886.00;;;9.64;56.25
34124;BME280;13153;52.316;21.166;2023-12-29T03:56:09;99892.84;;;9.57;56.65
34124;BME280;13153;52.316;21.166;2023-12-29T03:58:35;99884.97;;;9.57;57.04
34124;BME280;13153;52.316;21.166;2023-12-29T04:01:02;99891.91;;;9.54;56.80
34124;BME280;13153;52.316;21.166;2023-12-29T04:03:28;99887.53;;;9.54;56.99
34124;BME280;13153;52.316;21.166;2023-12-29T04:05:53;99881.28;;;9.49;57.19
34124;BME280;13153;52.316;21.166;2023-12-29T04:08:19;99883.06;;;9.50;56.91
34124;BME280;13153;52.316;21.166;2023-12-29T04:10:45;99884.81;;;9.50;56.69
34124;BME280;13153;52.316;21.166;2023-12-29T04:13:11;99885.63;;;9.47;57.07
34124;BME280;13153;52.316;21.166;2023-12-29T04:15:36;99885.59;;;9.46;56.42
34124;BME280;13153;52.316;21.166;2023-12-29T04:18:02;99880.13;;;9.37;57.30
34124;BME280;13153;52.316;21.166;2023-12-29T04:20:28;99880.16;;;9.38;57.08
34124;BME280;13153;52.316;21.166;2023-12-29T04:22:55;99873.94;;;9.35;56.94
34124;BME280;13153;52.316;21.166;2023-12-29T04:25:20;99880.97;;;9.36;57.15
34124;BME280;13153;52.316;21.166;2023-12-29T04:27:46;99873.09;;;9.36;57.18
34124;BME280;13153;52.316;21.166;2023-12-29T04:30:12;99869.47;;;9.31;56.70
34124;BME280;13153;52.316;21.166;2023-12-29T04:32:38;99866.69;;;9.24;57.64
34124;BME280;13153;52.316;21.166;2023-12-29T04:35:04;99854.50;;;9.26;57.41
34124;BME280;13153;52.316;21.166;2023-12-29T04:37:30;99853.72;;;9.31;57.63
34124;BME280;13153;52.316;21.166;2023-12-29T04:39:56;99845.59;;;9.18;57.44
34124;BME280;13153;52.316;21.166;2023-12-29T04:42:22;99845.53;;;9.15;57.43
34124;BME280;13153;52.316;21.166;2023-12-29T04:44:48;99849.91;;;9.16;58.02
34124;BME280;13153;52.316;21.166;2023-12-29T04:47:13;99845.63;;;9.20;57.62
34124;BME280;13153;52.316;21.166;2023-12-29T04:49:39;99846.56;;;9.22;57.56
34124;BME280;13153;52.316;21.166;2023-12-29T04:52:05;99862.34;;;9.23;58.00
34124;BME280;13153;52.316;21.166;2023-12-29T04:54:31;99858.78;;;9.21;57.54
34124;BME280;13153;52.316;21.166;2023-12-29T04:56:56;99860.50;;;9.19;58.20
34124;BME280;13153;52.316;21.166;2023-12-29T04:59:22;99853.50;;;9.20;57.67
34124;BME280;13153;52.316;21.166;2023-12-29T05:01:48;99855.28;;;9.21;58.11
34124;BME280;13153;52.316;21.166;2023-12-29T05:04:13;99849.22;;;9.23;57.68
34124;BME280;13153;52.316;21.166;2023-12-29T05:06:40;99853.56;;;9.24;57.42
34124;BME280;13153;52.316;21.166;2023-12-29T05:09:06;99864.06;;;9.23;58.33
34124;BME280;13153;52.316;21.166;2023-12-29T05:11:32;99858.66;;;9.15;58.20
34124;BME280;13153;52.316;21.166;2023-12-29T05:13:58;99850.06;;;9.22;58.14
34124;BME280;13153;52.316;21.166;2023-12-29T05:16:23;99858.50;;;9.09;58.83
34124;BME280;13153;52.316;21.166;2023-12-29T05:18:49;99845.63;;;9.20;58.68
34124;BME280;13153;52.316;21.166;2023-12-29T05:21:16;99847.53;;;9.28;58.06
34124;BME280;13153;52.316;21.166;2023-12-29T05:23:44;99847.63;;;9.32;58.29
34124;BME280;13153;52.316;21.166;2023-12-29T05:26:11;99844.59;;;9.13;58.91
34124;BME280;13153;52.316;21.166;2023-12-29T05:28:37;99847.47;;;9.24;58.28
34124;BME280;13153;52.316;21.166;2023-12-29T05:31:03;99847.59;;;9.30;58.47
34124;BME280;13153;52.316;21.166;2023-12-29T05:33:31;99851.94;;;9.30;58.40
34124;BME280;13153;52.316;21.166;2023-12-29T05:35:57;99842.41;;;9.33;58.43
34124;BME280;13153;52.316;21.166;2023-12-29T05:38:23;99851.13;;;9.32;58.55
34124;BME280;13153;52.316;21.166;2023-12-29T05:40:50;99849.47;;;9.36;58.53
34124;BME280;13153;52.316;21.166;2023-12-29T05:43:16;99835.44;;;9.35;58.29
34124;BME280;13153;52.316;21.166;2023-12-29T05:45:41;99843.34;;;9.37;58.64
34124;BME280;13153;52.316;21.166;2023-12-29T05:48:08;99835.66;;;9.44;58.68
34124;BME280;13153;52.316;21.166;2023-12-29T05:50:33;99842.78;;;9.50;58.04
34124;BME280;13153;52.316;21.166;2023-12-29T05:52:59;99838.31;;;9.46;58.15
34124;BME280;13153;52.316;21.166;2023-12-29T05:55:25;99838.41;;;9.50;57.71
34124;BME280;13153;52.316;21.166;2023-12-29T05:57:51;99847.13;;;9.48;57.92
34124;BME280;13153;52.316;21.166;2023-12-29T06:00:16;99847.13;;;9.48;58.25
34124;BME280;13153;52.316;21.166;2023-12-29T06:02:43;99845.41;;;9.50;58.19
34124;BME280;13153;52.316;21.166;2023-12-29T06:05:11;99838.38;;;9.49;58.06
34124;BME280;13153;52.316;21.166;2023-12-29T06:07:38;99841.00;;;9.49;57.57
34124;BME280;13153;52.316;21.166;2023-12-29T06:10:04;99834.00;;;9.48;58.04
34124;BME280;13153;52.316;21.166;2023-12-29T06:12:30;99825.13;;;9.43;57.92
34124;BME280;13153;52.316;21.166;2023-12-29T06:14:56;99820.50;;;9.33;58.43
34124;BME280;13153;52.316;21.166;2023-12-29T06:17:22;99812.72;;;9.36;58.73
34124;BME280;13153;52.316;21.166;2023-12-29T06:19:47;99814.19;;;9.23;58.99
34124;BME280;13153;52.316;21.166;2023-12-29T06:22:13;99818.66;;;9.28;58.80
34124;BME280;13153;52.316;21.166;2023-12-29T06:24:40;99817.78;;;9.28;58.50
34124;BME280;13153;52.316;21.166;2023-12-29T06:27:08;99814.28;;;9.27;58.33
34124;BME280;13153;52.316;21.166;2023-12-29T06:29:35;99812.63;;;9.33;58.87
34124;BME280;13153;52.316;21.166;2023-12-29T06:32:02;99804.03;;;9.40;58.53
34124;BME280;13153;52.316;21.166;2023-12-29T06:34:28;99806.56;;;9.35;58.76
34124;BME280;13153;52.316;21.166;2023-12-29T06:36:54;99813.25;;;9.19;58.47
34124;BME280;13153;52.316;21.166;2023-12-29T06:39:20;99816.13;;;9.32;58.82
34124;BME280;13153;52.316;21.166;2023-12-29T06:41:45;99812.53;;;9.28;59.03
34124;BME280;13153;52.316;21.166;2023-12-29T06:44:11;99800.34;;;9.30;58.47
34124;BME280;13153;52.316;21.166;2023-12-29T06:46:37;99796.56;;;9.17;59.19
34124;BME280;13153;52.316;21.166;2023-12-29T06:49:04;99797.59;;;9.25;58.71
34124;BME280;13153;52.316;21.166;2023-12-29T06:51:30;99802.97;;;9.30;58.93
34124;BME280;13153;52.316;21.166;2023-12-29T06:53:55;99793.38;;;9.32;58.35
34124;BME280;13153;52.316;21.166;2023-12-29T06:56:21;99796.72;;;9.25;59.04
34124;BME280;13153;52.316;21.166;2023-12-29T06:58:47;99785.34;;;9.24;59.40
34124;BME280;13153;52.316;21.166;2023-12-29T07:01:13;99800.22;;;9.24;59.40
34124;BME280;13153;52.316;21.166;2023-12-29T07:03:39;99803.72;;;9.24;59.27
34124;BME280;13153;52.316;21.166;2023-12-29T07:06:05;99808.09;;;9.25;58.71
34124;BME280;13153;52.316;21.166;2023-12-29T07:08:31;99794.91;;;9.21;59.19
34124;BME280;13153;52.316;21.166;2023-12-29T07:10:56;99791.47;;;9.25;59.16
34124;BME280;13153;52.316;21.166;2023-12-29T07:13:22;99808.91;;;9.21;59.04
34124;BME280;13153;52.316;21.166;2023-12-29T07:15:48;99797.66;;;9.28;59.32
34124;BME280;13153;52.316;21.166;2023-12-29T07:18:14;99788.22;;;9.37;59.48
34124;BME280;13153;52.316;21.166;2023-12-29T07:20:42;99779.63;;;9.44;59.31
34124;BME280;13153;52.316;21.166;2023-12-29T07:23:08;99780.47;;;9.43;58.88
34124;BME280;13153;52.316;21.166;2023-12-29T07:25:33;99788.41;;;9.44;59.43
34124;BME280;13153;52.316;21.166;2023-12-29T07:28:00;99777.75;;;9.38;59.96
34124;BME280;13153;52.316;21.166;2023-12-29T07:30:26;99777.94;;;9.46;59.42
34124;BME280;13153;52.316;21.166;2023-12-29T07:32:52;99784.19;;;9.52;59.46
34124;BME280;13153;52.316;21.166;2023-12-29T07:35:18;99777.84;;;9.43;59.65
34124;BME280;13153;52.316;21.166;2023-12-29T07:37:46;99769.97;;;9.43;59.91
34124;BME280;13153;52.316;21.166;2023-12-29T07:40:13;99771.13;;;9.55;59.59
34124;BME280;13153;52.316;21.166;2023-12-29T07:42:42;99779.16;;;9.63;59.58
34124;BME280;13153;52.316;21.166;2023-12-29T07:45:12;99769.41;;;9.57;59.21
34124;BME280;13153;52.316;21.166;2023-12-29T07:47:38;99774.72;;;9.60;59.42
34124;BME280;13153;52.316;21.166;2023-12-29T07:50:05;99773.78;;;9.57;59.55
34124;BME280;13153;52.316;21.166;2023-12-29T07:52:31;99758.91;;;9.57;60.07
34124;BME280;13153;52.316;21.166;2023-12-29T07:54:57;99759.22;;;9.73;59.21
34124;BME280;13153;52.316;21.166;2023-12-29T07:57:22;99761.19;;;9.84;58.92
34124;BME280;13153;52.316;21.166;2023-12-29T07:59:48;99764.78;;;9.89;59.10
34124;BME280;13153;52.316;21.166;2023-12-29T08:02:14;99752.56;;;9.91;58.88
34124;BME280;13153;52.316;21.166;2023-12-29T08:04:39;99761.34;;;9.93;58.56
34124;BME280;13153;52.316;21.166;2023-12-29T08:07:05;99749.81;;;9.85;58.88
34124;BME280;13153;52.316;21.166;2023-12-29T08:09:31;99739.22;;;9.79;59.35
34124;BME280;13153;52.316;21.166;2023-12-29T08:11:57;99754.16;;;9.83;59.30
34124;BME280;13153;52.316;21.166;2023-12-29T08:14:22;99753.97;;;9.73;59.38
34124;BME280;13153;52.316;21.166;2023-12-29T08:16:48;99749.75;;;9.82;59.25
34124;BME280;13153;52.316;21.166;2023-12-29T08:19:14;99741.16;;;9.91;59.19
34124;BME280;13153;52.316;21.166;2023-12-29T08:21:41;99748.00;;;9.81;59.44
34124;BME280;13153;52.316;21.166;2023-12-29T08:24:06;99749.66;;;9.76;59.04
34124;BME280;13153;52.316;21.166;2023-12-29T08:26:32;99752.47;;;9.87;59.05
34124;BME280;13153;52.316;21.166;2023-12-29T08:28:58;99750.09;;;10.01;58.75
34124;BME280;13153;52.316;21.166;2023-12-29T08:31:24;99754.31;;;9.92;58.99
34124;BME280;13153;52.316;21.166;2023-12-29T08:33:52;99744.63;;;9.90;58.94
34124;BME280;13153;52.316;21.166;2023-12-29T08:36:21;99740.31;;;9.93;59.23
34124;BME280;13153;52.316;21.166;2023-12-29T08:38:47;99742.38;;;10.10;59.16
34124;BME280;13153;52.316;21.166;2023-12-29T08:41:15;99744.97;;;10.07;58.78
34124;BME280;13153;52.316;21.166;2023-12-29T08:43:41;99745.91;;;10.10;58.64
34124;BME280;13153;52.316;21.166;2023-12-29T08:46:07;99749.22;;;10.00;59.16
34124;BME280;13153;52.316;21.166;2023-12-29T08:48:33;99749.53;;;10.17;58.81
34124;BME280;13153;52.316;21.166;2023-12-29T08:50:59;99758.06;;;10.05;59.03
34124;BME280;13153;52.316;21.166;2023-12-29T08:53:25;99751.53;;;10.30;58.87
34124;BME280;13153;52.316;21.166;2023-12-29T08:55:51;99751.81;;;10.48;58.51
34124;BME280;13153;52.316;21.166;2023-12-29T08:58:17;99752.06;;;10.62;58.30
34124;BME280;13153;52.316;21.166;2023-12-29T09:00:42;99739.78;;;10.63;57.73
34124;BME280;13153;52.316;21.166;2023-12-29T09:03:08;99737.47;;;10.82;57.41
34124;BME280;13153;52.316;21.166;2023-12-29T09:05:34;99739.22;;;10.82;57.22
34124;BME280;13153;52.316;21.166;2023-12-29T09:08:00;99728.91;;;10.99;56.83
34124;BME280;13153;52.316;21.166;2023-12-29T09:10:26;99731.72;;;11.11;56.59
34124;BME280;13153;52.316;21.166;2023-12-29T09:12:52;99733.56;;;11.16;56.19
34124;BME280;13153;52.316;21.166;2023-12-29T09:15:18;99745.75;;;11.10;56.44
34124;BME280;13153;52.316;21.166;2023-12-29T09:17:43;99741.44;;;11.15;56.11
34124;BME280;13153;52.316;21.166;2023-12-29T09:20:09;99747.63;;;11.18;56.34
34124;BME280;13153;52.316;21.166;2023-12-29T09:22:35;99742.59;;;11.35;56.01
34124;BME280;13153;52.316;21.166;2023-12-29T09:25:01;99732.03;;;11.34;55.90
34124;BME280;13153;52.316;21.166;2023-12-29T09:27:27;99732.34;;;11.61;55.20
34124;BME280;13153;52.316;21.166;2023-12-29T09:29:52;99727.94;;;11.60;55.22
34124;BME280;13153;52.316;21.166;2023-12-29T09:32:18;99722.94;;;11.81;54.53
34124;BME280;13153;52.316;21.166;2023-12-29T09:34:44;99724.50;;;11.67;54.68
34124;BME280;13153;52.316;21.166;2023-12-29T09:37:10;99720.94;;;11.62;54.89
34124;BME280;13153;52.316;21.166;2023-12-29T09:39:35;99722.94;;;11.81;54.37
34124;BME280;13153;52.316;21.166;2023-12-29T09:42:04;99712.28;;;11.72;55.03
34124;BME280;13153;52.316;21.166;2023-12-29T09:44:31;99714.13;;;11.79;54.82
34124;BME280;13153;52.316;21.166;2023-12-29T09:47:03;99711.56;;;11.84;54.92
34124;BME280;13153;52.316;21.166;2023-12-29T09:49:38;99720.34;;;11.84;54.67
34124;BME280;13153;52.316;21.166;2023-12-29T09:52:11;99719.72;;;12.10;54.21
34124;BME280;13153;52.316;21.166;2023-12-29T09:54:39;99705.75;;;12.23;53.63
34124;BME280;13153;52.316;21.166;2023-12-29T09:57:05;99715.44;;;12.26;53.27
34124;BME280;13153;52.316;21.166;2023-12-29T09:59:34;99709.94;;;11.98;53.84
34124;BME280;13153;52.316;21.166;2023-12-29T10:02:04;99718.81;;;12.05;53.70
34124;BME280;13153;52.316;21.166;2023-12-29T10:04:30;99710.00;;;12.03;53.98
34124;BME280;13153;52.316;21.166;2023-12-29T10:07:00;99715.28;;;12.04;54.24
34124;BME280;13153;52.316;21.166;2023-12-29T10:09:31;99715.28;;;12.04;54.43
34124;BME280;13153;52.316;21.166;2023-12-29T10:12:02;99711.66;;;11.95;54.39
34124;BME280;13153;52.316;21.166;2023-12-29T10:14:48;99715.34;;;12.10;54.03
34124;BME280;13153;52.316;21.166;2023-12-29T10:23:13;99717.13;;;12.13;54.35
34124;BME280;13153;52.316;21.166;2023-12-29T10:25:42;99711.06;;;12.26;53.98
34124;BME280;13153;52.316;21.166;2023-12-29T10:28:13;99705.75;;;12.23;53.81
34124;BME280;13153;52.316;21.166;2023-12-29T10:30:39;99704.97;;;12.35;53.80
34124;BME280;13153;52.316;21.166;2023-12-29T10:33:05;99697.06;;;12.35;53.82
34124;BME280;13153;52.316;21.166;2023-12-29T10:35:32;99688.28;;;12.34;53.39
34124;BME280;13153;52.316;21.166;2023-12-29T10:38:13;99697.19;;;12.48;53.60
34124;BME280;13153;52.316;21.166;2023-12-29T10:40:41;99685.91;;;12.68;52.84
34124;BME280;13153;52.316;21.166;2023-12-29T10:43:08;99690.38;;;12.82;52.65
34124;BME280;13153;52.316;21.166;2023-12-29T10:45:35;99691.97;;;12.54;53.29
34124;BME280;13153;52.316;21.166;2023-12-29T10:48:02;99687.59;;;12.58;53.22
34124;BME280;13153;52.316;21.166;2023-12-29T10:50:28;99691.06;;;12.52;53.34
34124;BME280;13153;52.316;21.166;2023-12-29T10:53:14;99690.09;;;12.41;53.68
34124;BME280;13153;52.316;21.166;2023-12-29T10:55:40;99689.25;;;12.47;53.75
34124;BME280;13153;52.316;21.166;2023-12-29T10:58:06;99699.84;;;12.53;53.38
34124;BME280;13153;52.316;21.166;2023-12-29T11:00:32;99694.69;;;12.71;53.18
34124;BME280;13153;52.316;21.166;2023-12-29T11:03:01;99687.59;;;12.61;53.22
34124;BME280;13153;52.316;21.166;2023-12-29T11:05:27;99691.97;;;12.57;53.14
34124;BME280;13153;52.316;21.166;2023-12-29T11:07:54;99677.09;;;12.73;53.21
34124;BME280;13153;52.316;21.166;2023-12-29T11:10:22;99685.09;;;12.84;52.83
34124;BME280;13153;52.316;21.166;2023-12-29T11:12:49;99679.75;;;12.76;52.85
34124;BME280;13153;52.316;21.166;2023-12-29T11:15:16;99685.94;;;12.78;52.79
34124;BME280;13153;52.316;21.166;2023-12-29T11:17:43;99676.22;;;12.74;53.28
34124;BME280;13153;52.316;21.166;2023-12-29T11:20:16;99677.25;;;12.99;52.50
34124;BME280;13153;52.316;21.166;2023-12-29T11:22:43;99671.97;;;12.99;52.71
34124;BME280;13153;52.316;21.166;2023-12-29T11:25:10;99664.81;;;12.78;52.88
34124;BME280;13153;52.316;21.166;2023-12-29T11:27:36;99655.19;;;12.85;52.95
34124;BME280;13153;52.316;21.166;2023-12-29T11:30:04;99651.63;;;12.81;52.94
34124;BME280;13153;52.316;21.166;2023-12-29T11:32:51;99649.13;;;13.04;52.46
34124;BME280;13153;52.316;21.166;2023-12-29T11:35:38;99642.84;;;12.84;53.03
34124;BME280;13153;52.316;21.166;2023-12-29T11:38:40;99645.56;;;12.95;53.03
34124;BME280;13153;52.316;21.166;2023-12-29T11:41:23;99641.03;;;12.77;53.15
34124;BME280;13153;52.316;21.166;2023-12-29T11:44:01;99634.97;;;12.93;52.87
34124;BME280;13153;52.316;21.166;2023-12-29T11:46:43;99628.81;;;12.91;52.75
34124;BME280;13153;52.316;21.166;2023-12-29T11:49:10;99632.28;;;12.82;53.15
34124;BME280;13153;52.316;21.166;2023-12-29T11:51:41;99623.50;;;12.86;52.99
34124;BME280;13153;52.316;21.166;2023-12-29T11:54:09;99619.09;;;12.85;52.84
34124;BME280;13153;52.316;21.166;2023-12-29T11:56:37;99622.66;;;12.92;53.24
34124;BME280;13153;52.316;21.166;2023-12-29T11:59:21;99606.72;;;12.66;53.30
34124;BME280;13153;52.316;21.166;2023-12-29T12:01:53;99605.00;;;12.82;nan
34124;BME280;13153;52.316;21.166;2023-12-29T12:04:40;99609.47;;;12.98;52.52
34124;BME280;13153;52.316;21.166;2023-12-29T12:09:50;99607.75;;;13.02;52.34
34124;BME280;13153;52.316;21.166;2023-12-29T12:12:42;99603.34;;;13.04;52.57
34124;BME280;13153;52.316;21.166;2023-12-29T12:17:59;99603.25;;;12.85;52.56
34124;BME280;13153;52.316;21.166;2023-12-29T12:20:25;99627.94;;;12.94;52.95
34124;BME280;13153;52.316;21.166;2023-12-29T12:23:01;99625.28;;;12.92;52.54
34124;BME280;13153;52.316;21.166;2023-12-29T12:25:30;99634.16;;;13.02;52.68
34124;BME280;13153;52.316;21.166;2023-12-29T12:27:57;99629.78;;;13.07;52.74
34124;BME280;13153;52.316;21.166;2023-12-29T12:30:23;99620.84;;;12.82;53.11
34124;BME280;13153;52.316;21.166;2023-12-29T12:33:00;99619.97;;;12.83;53.47
34124;BME280;13153;52.316;21.166;2023-12-29T12:35:26;99616.41;;;12.78;54.13
34124;BME280;13153;52.316;21.166;2023-12-29T12:38:11;99612.97;;;12.89;54.32
34124;BME280;13153;52.316;21.166;2023-12-29T12:40:38;99607.72;;;13.00;53.66
34124;BME280;13153;52.316;21.166;2023-12-29T12:43:04;99614.75;;;12.98;53.75
34124;BME280;13153;52.316;21.166;2023-12-29T12:45:41;99620.00;;;12.90;54.11
34124;BME280;13153;52.316;21.166;2023-12-29T12:48:36;99616.56;;;13.04;53.27
34124;BME280;13153;52.316;21.166;2023-12-29T12:51:05;99605.91;;;12.87;53.87
34124;BME280;13153;52.316;21.166;2023-12-29T12:53:32;99615.63;;;12.97;53.50
34124;BME280;13153;52.316;21.166;2023-12-29T12:55:58;99613.84;;;12.92;53.80
34124;BME280;13153;52.316;21.166;2023-12-29T12:58:24;99610.38;;;13.03;53.35
34124;BME280;13153;52.316;21.166;2023-12-29T13:00:57;99606.88;;;13.04;53.27
34124;BME280;13153;52.316;21.166;2023-12-29T13:03:24;99611.25;;;12.99;53.40
34124;BME280;13153;52.316;21.166;2023-12-29T13:05:52;99612.97;;;12.94;53.35
34124;BME280;13153;52.316;21.166;2023-12-29T13:08:18;99606.81;;;12.95;53.54
34124;BME280;13153;52.316;21.166;2023-12-29T13:10:45;99615.59;;;12.91;53.15